Time;durP1;ratioP1;P1;durP2;ratioP2;P2;SDS_P1;SDS_P2;PMS_P1;PMS_P2;Temp;Humidity;BMP_temperature;BMP_pressure;BME280_temperature;BME280_humidity;BME280_pressure;Samples;Min_cycle;Max_cycle;Signal;HPM_P1;HPM_P2
2023/03/17 00:01:04;;;;;;;5.63;4.10;;;;;;;5.93;83.86;97861.53;5073545;28;20201;-74
2023/03/17 00:03:33;;;;;;;5.67;4.33;;;;;;;5.90;84.96;97856.66;5073114;28;20307;-74
2023/03/17 00:06:00;;;;;;;5.57;4.43;;;;;;;5.87;84.29;97849.13;5072952;28;20303;-74
2023/03/17 00:08:29;;;;;;;4.37;3.97;;;;;;;5.88;85.01;97852.59;5073459;28;20224;-74
2023/03/17 00:10:56;;;;;;;5.27;4.17;;;;;;;5.83;87.20;97836.53;5073268;28;20212;-74
2023/03/17 00:13:23;;;;;;;6.70;4.37;;;;;;;5.74;87.56;97840.31;5073030;28;20733;-74
2023/03/17 00:15:56;;;;;;;6.57;4.53;;;;;;;5.66;89.43;97832.53;5073271;28;20209;-74
2023/03/17 00:18:23;;;;;;;5.97;4.57;;;;;;;5.66;88.79;97819.34;5073702;28;20686;-74
2023/03/17 00:20:50;;;;;;;8.00;4.57;;;;;;;5.62;89.97;97824.22;5073038;28;20204;-74
2023/03/17 00:23:21;;;;;;;5.27;4.10;;;;;;;5.66;90.10;97814.09;5073282;28;20225;-74
2023/03/17 00:25:49;;;;;;;5.43;4.30;;;;;;;5.68;87.60;97809.41;5073346;28;20193;-74
2023/03/17 00:28:26;;;;;;;5.73;4.30;;;;;;;5.68;89.35;97809.41;5073407;28;20224;-74
2023/03/17 00:30:55;;;;;;;4.53;4.13;;;;;;;5.75;88.50;97805.81;5073286;28;20211;-74
2023/03/17 00:33:28;;;;;;;6.80;4.30;;;;;;;5.75;88.47;97812.91;5073178;28;20224;-74
2023/03/17 00:35:56;;;;;;;6.70;4.43;;;;;;;5.79;88.22;97811.53;5072894;28;20204;-74
2023/03/17 00:38:23;;;;;;;7.73;4.83;;;;;;;5.77;89.58;97810.88;5071928;28;20200;-74
2023/03/17 00:40:49;;;;;;;4.90;3.90;;;;;;;5.87;86.87;97796.38;5073558;28;20205;-74
2023/03/17 00:43:17;;;;;;;5.60;4.30;;;;;;;5.77;89.44;97805.63;5072823;28;20317;-74
2023/03/17 00:45:44;;;;;;;6.73;4.50;;;;;;;5.72;91.86;97798.28;5072807;28;20244;-75
2023/03/17 00:48:19;;;;;;;5.13;4.23;;;;;;;5.72;90.45;97802.75;5072762;28;20683;-74
2023/03/17 00:50:48;;;;;;;5.33;4.20;;;;;;;5.72;90.39;97793.03;5072798;28;20556;-75
2023/03/17 00:53:17;;;;;;;6.10;4.20;;;;;;;5.73;89.82;97799.91;5072981;28;20224;-75
2023/03/17 00:55:45;;;;;;;6.33;4.50;;;;;;;5.71;88.93;97793.22;5073247;28;20292;-75
2023/03/17 00:58:32;;;;;;;6.57;4.13;;;;;;;5.71;89.35;97790.56;5073488;28;20212;-75
2023/03/17 01:00:59;;;;;;;5.70;4.20;;;;;;;5.65;90.89;97791.38;5076660;28;20296;-75
2023/03/17 01:03:27;;;;;;;4.57;4.10;;;;;;;5.69;91.12;97785.50;5076502;28;20224;-75
2023/03/17 01:05:55;;;;;;;4.40;4.00;;;;;;;5.73;90.69;97783.28;5076635;28;20207;-75
2023/03/17 01:08:22;;;;;;;5.00;4.13;;;;;;;5.78;89.39;97772.94;5076476;28;20201;-74
2023/03/17 01:10:49;;;;;;;6.60;4.30;;;;;;;5.81;90.75;97769.97;5076483;28;20204;-75
2023/03/17 01:13:15;;;;;;;5.13;4.10;;;;;;;5.79;90.14;97758.78;5076136;28;20711;-75
2023/03/17 01:15:45;;;;;;;4.73;3.87;;;;;;;5.75;93.45;97762.81;5076111;28;20673;-75
2023/03/17 01:18:14;;;;;;;5.07;4.27;;;;;;;5.78;89.60;97765.03;5076105;28;20216;-74
2023/03/17 01:20:41;;;;;;;5.77;3.90;;;;;;;5.76;90.24;97764.44;5076248;28;20546;-75
2023/03/17 01:23:08;;;;;;;6.20;4.33;;;;;;;5.73;93.05;97765.63;5076140;28;20255;-74
2023/03/17 01:25:35;;;;;;;4.90;4.10;;;;;;;5.68;94.48;97761.94;5076092;28;20208;-75
2023/03/17 01:28:02;;;;;;;4.90;3.90;;;;;;;5.64;93.21;97768.63;5076218;28;20231;-75
2023/03/17 01:30:28;;;;;;;5.83;4.03;;;;;;;5.70;91.75;97760.75;5076059;28;20228;-75
2023/03/17 01:32:56;;;;;;;6.63;4.13;;;;;;;5.71;92.72;97762.38;5075690;28;20225;-75
2023/03/17 01:35:23;;;;;;;8.90;4.13;;;;;;;5.74;93.80;97755.91;5075890;28;20205;-75
2023/03/17 01:37:50;;;;;;;5.50;4.03;;;;;;;5.77;90.58;97750.22;5075708;28;20663;-75
2023/03/17 01:40:23;;;;;;;6.30;4.13;;;;;;;5.75;92.48;97758.31;5076057;28;20250;-75
2023/03/17 01:43:24;;;;;;;4.90;3.70;;;;;;;5.77;91.59;97750.22;5075967;28;20684;-75
2023/03/17 01:46:24;;;;;;;4.10;3.70;;;;;;;5.80;88.19;97749.84;5073247;28;20290;-75
2023/03/17 01:48:57;;;;;;;4.93;3.87;;;;;;;5.72;92.34;97747.34;5075639;28;20274;-75
2023/03/17 01:51:31;;;;;;;4.67;3.83;;;;;;;5.68;93.42;97744.31;5076295;28;20193;-75
2023/03/17 01:54:01;;;;;;;4.10;3.70;;;;;;;5.70;91.40;97742.28;5075410;28;20225;-75
2023/03/17 01:56:29;;;;;;;4.60;4.13;;;;;;;5.69;90.45;97738.03;5074142;28;20324;-75
2023/03/17 01:58:59;;;;;;;5.50;3.90;;;;;;;5.66;90.98;97734.97;5075394;28;20203;-74
2023/03/17 02:01:33;;;;;;;4.90;3.97;;;;;;;5.61;94.83;97726.84;5075716;28;20206;-74
2023/03/17 02:04:02;;;;;;;4.37;3.97;;;;;;;5.61;92.86;97734.75;5076012;28;20279;-75
2023/03/17 02:06:28;;;;;;;4.27;3.53;;;;;;;5.60;94.88;97728.66;5075481;28;20204;-75
2023/03/17 02:08:54;;;;;;;6.47;4.17;;;;;;;5.62;91.81;97725.81;5074998;28;20242;-75
2023/03/17 02:11:21;;;;;;;7.60;4.13;;;;;;;5.69;92.37;97737.19;5074338;28;20200;-75
2023/03/17 02:13:48;;;;;;;6.13;4.00;;;;;;;5.64;91.82;97739.59;5075178;28;20287;-75
2023/03/17 02:16:16;;;;;;;6.30;4.37;;;;;;;5.63;92.54;97741.44;5074866;28;20209;-75
2023/03/17 02:18:43;;;;;;;6.27;4.10;;;;;;;5.62;92.99;97741.63;5075098;28;20189;-75
2023/03/17 02:21:34;;;;;;;5.87;4.13;;;;;;;5.62;92.78;97742.47;5075015;28;20205;-75
2023/03/17 02:24:04;;;;;;;4.13;3.70;;;;;;;5.61;93.12;97737.38;5074807;28;20195;-75
2023/03/17 02:26:34;;;;;;;4.77;3.73;;;;;;;5.57;94.53;97728.22;5073549;28;20529;-75
2023/03/17 02:29:01;;;;;;;4.30;3.90;;;;;;;5.50;94.76;97728.19;5074428;28;20224;-75
2023/03/17 02:31:29;;;;;;;5.10;4.00;;;;;;;5.48;94.20;97742.56;5074986;28;20208;-75
2023/03/17 02:33:55;;;;;;;4.83;4.30;;;;;;;5.39;98.24;97749.81;5074545;28;20232;-75
2023/03/17 02:36:22;;;;;;;4.60;3.90;;;;;;;5.35;97.90;97742.50;5074825;28;20200;-75
2023/03/17 02:38:48;;;;;;;6.43;4.87;;;;;;;5.29;98.31;97736.16;5074443;28;20675;-75
2023/03/17 02:41:15;;;;;;;5.63;4.20;;;;;;;5.22;99.48;97727.44;5074685;28;20204;-75
2023/03/17 02:43:42;;;;;;;4.70;4.03;;;;;;;5.22;98.51;97734.50;5074546;28;20589;-75
2023/03/17 02:46:08;;;;;;;4.93;4.43;;;;;;;5.27;97.47;97732.09;5074273;28;20691;-74
2023/03/17 02:48:36;;;;;;;5.43;3.93;;;;;;;5.25;100.00;97724.38;5074477;28;20256;-75
2023/03/17 02:51:04;;;;;;;5.17;4.63;;;;;;;5.27;99.73;97722.38;5074295;28;20672;-75
2023/03/17 02:53:31;;;;;;;7.27;5.37;;;;;;;5.31;100.00;97720.16;5074448;28;20225;-75
2023/03/17 02:55:57;;;;;;;6.93;5.10;;;;;;;5.33;99.64;97716.31;5074519;28;20201;-75
2023/03/17 02:58:23;;;;;;;9.50;5.43;;;;;;;5.36;99.85;97709.84;5073870;28;20667;-75
2023/03/17 03:00:50;;;;;;;6.10;5.33;;;;;;;5.36;98.07;97715.13;5073969;28;20561;-74
2023/03/17 03:03:16;;;;;;;8.53;4.97;;;;;;;5.40;97.41;97703.19;5073714;28;20604;-75
2023/03/17 03:05:43;;;;;;;6.97;5.10;;;;;;;5.38;98.56;97707.84;5074608;28;20644;-75
2023/03/17 03:08:09;;;;;;;7.13;4.63;;;;;;;5.38;97.52;97713.13;5074133;28;20208;-74
2023/03/17 03:10:36;;;;;;;5.50;4.87;;;;;;;5.41;97.07;97718.00;5073926;28;20226;-75
2023/03/17 03:13:03;;;;;;;7.90;5.33;;;;;;;5.35;98.77;97710.88;5073558;28;20592;-75
2023/03/17 03:15:29;;;;;;;5.70;5.10;;;;;;;5.34;99.39;97709.25;5074160;28;20206;-74
2023/03/17 03:17:55;;;;;;;7.27;5.07;;;;;;;5.31;99.95;97715.72;5073803;28;20212;-74
2023/03/17 03:20:22;;;;;;;7.77;4.77;;;;;;;5.34;98.20;97703.97;5073561;28;20686;-75
2023/03/17 03:22:48;;;;;;;6.10;4.80;;;;;;;5.30;98.15;97706.16;5073446;28;20235;-75
2023/03/17 03:25:14;;;;;;;6.23;4.97;;;;;;;5.29;99.22;97709.03;5074371;28;20200;-74
2023/03/17 03:27:41;;;;;;;6.73;5.07;;;;;;;5.25;99.18;97705.13;5073844;28;20290;-74
2023/03/17 03:30:09;;;;;;;6.47;4.90;;;;;;;5.21;99.65;97706.53;5073681;28;20228;-74
2023/03/17 03:32:36;;;;;;;7.60;5.03;;;;;;;5.15;100.00;97708.13;5073440;28;20227;-75
2023/03/17 03:35:03;;;;;;;7.10;4.90;;;;;;;5.17;99.04;97707.91;5073585;28;20205;-74
2023/03/17 03:37:30;;;;;;;6.37;4.70;;;;;;;5.09;100.00;97702.81;5073633;28;20204;-74
2023/03/17 03:39:56;;;;;;;8.30;5.07;;;;;;;5.02;100.00;97704.59;5073934;28;20200;-75
2023/03/17 03:42:22;;;;;;;6.77;4.83;;;;;;;5.00;100.00;97710.03;5073680;28;20232;-74
2023/03/17 03:44:49;;;;;;;6.13;4.80;;;;;;;4.99;99.84;97703.16;5073795;28;20639;-74
2023/03/17 03:47:15;;;;;;;6.53;4.80;;;;;;;4.91;100.00;97703.28;5073361;28;20569;-74
2023/03/17 03:49:41;;;;;;;5.60;4.60;;;;;;;4.88;100.00;97711.56;5073424;28;20220;-75
2023/03/17 03:52:08;;;;;;;7.20;5.03;;;;;;;4.86;100.00;97718.03;5073430;28;20228;-75
2023/03/17 03:54:35;;;;;;;5.27;4.77;;;;;;;4.78;100.00;97710.28;5073679;28;20287;-74
2023/03/17 03:57:01;;;;;;;5.60;4.30;;;;;;;4.82;100.00;97712.34;5073610;28;20266;-74
2023/03/17 03:59:29;;;;;;;9.27;4.80;;;;;;;4.77;100.00;97711.28;5073112;28;20205;-75
2023/03/17 04:01:55;;;;;;;6.53;4.80;;;;;;;4.79;100.00;97701.38;5073007;28;20298;-75
2023/03/17 04:04:21;;;;;;;6.27;5.30;;;;;;;4.78;100.00;97708.47;5073116;28;20204;-75
2023/03/17 04:06:48;;;;;;;5.23;4.73;;;;;;;4.76;100.00;97707.03;5073244;28;20208;-74
2023/03/17 04:09:14;;;;;;;7.80;4.80;;;;;;;4.76;100.00;97704.38;5073121;28;20227;-74
2023/03/17 04:11:41;;;;;;;7.70;4.80;;;;;;;4.69;100.00;97700.88;5073116;28;20208;-75
2023/03/17 04:14:07;;;;;;;5.83;4.90;;;;;;;4.63;100.00;97704.28;5073158;28;20201;-75
2023/03/17 04:16:34;;;;;;;5.30;4.63;;;;;;;4.66;100.00;97701.28;5073159;28;20578;-75
2023/03/17 04:19:00;;;;;;;6.33;4.77;;;;;;;4.64;100.00;97695.38;5072971;28;20204;-75
2023/03/17 04:21:26;;;;;;;6.53;4.60;;;;;;;4.63;100.00;97705.09;5072772;28;20208;-75
2023/03/17 04:23:53;;;;;;;7.77;4.60;;;;;;;4.61;100.00;97706.31;5072492;28;20703;-75
2023/03/17 04:26:21;;;;;;;5.10;4.60;;;;;;;4.60;100.00;97699.38;5072620;28;20231;-74
2023/03/17 04:28:48;;;;;;;5.47;4.70;;;;;;;4.52;100.00;97697.72;5072485;28;20645;-75
2023/03/17 04:31:15;;;;;;;8.10;5.23;;;;;;;4.52;100.00;97697.72;5072660;28;20228;-75
2023/03/17 04:33:42;;;;;;;5.00;4.20;;;;;;;4.54;100.00;97692.25;5073766;28;20730;-75
2023/03/17 04:36:16;;;;;;;6.13;5.00;;;;;;;4.56;100.00;97695.53;5076696;28;20238;-75
2023/03/17 04:38:43;;;;;;;7.43;4.63;;;;;;;4.55;100.00;97689.44;5076510;28;20188;-75
2023/03/17 04:41:09;;;;;;;6.90;5.53;;;;;;;4.51;100.00;97682.09;5076184;28;20197;-74
2023/03/17 04:43:36;;;;;;;7.83;4.90;;;;;;;4.48;100.00;97685.94;5076380;28;20221;-74
2023/03/17 04:46:02;;;;;;;7.53;5.33;;;;;;;4.48;100.00;97687.75;5076245;28;20638;-74
2023/03/17 04:48:28;;;;;;;6.57;5.00;;;;;;;4.49;100.00;97684.13;5076189;28;20205;-75
2023/03/17 04:50:55;;;;;;;7.97;5.23;;;;;;;4.46;100.00;97684.50;5076493;28;20247;-75
2023/03/17 04:53:21;;;;;;;8.30;5.77;;;;;;;4.43;100.00;97679.63;5076522;28;20228;-75
2023/03/17 04:55:47;;;;;;;6.50;5.50;;;;;;;4.38;100.00;97685.44;5076593;28;20205;-75
2023/03/17 04:58:14;;;;;;;7.73;5.07;;;;;;;4.35;100.00;97679.75;5076499;28;20224;-75
2023/03/17 05:00:40;;;;;;;6.97;4.67;;;;;;;4.38;100.00;97676.75;5076594;28;20219;-74
2023/03/17 05:03:07;;;;;;;7.77;5.50;;;;;;;4.33;100.00;97666.78;5076176;28;20308;-75
2023/03/17 05:05:34;;;;;;;6.07;4.90;;;;;;;4.38;100.00;97676.75;5076089;28;20204;-75
2023/03/17 05:08:01;;;;;;;8.77;6.07;;;;;;;4.37;100.00;97675.09;5076091;28;20303;-75
2023/03/17 05:10:27;;;;;;;5.93;5.33;;;;;;;4.42;100.00;97670.91;5075857;28;20231;-75
2023/03/17 05:12:53;;;;;;;5.83;4.97;;;;;;;4.49;100.00;97668.31;5076077;28;20745;-74
2023/03/17 05:15:20;;;;;;;7.57;5.00;;;;;;;4.46;100.00;97672.16;5075764;28;20209;-74
2023/03/17 05:17:46;;;;;;;6.10;5.40;;;;;;;4.45;100.00;97661.81;5075755;28;20590;-74
2023/03/17 05:20:13;;;;;;;6.70;5.13;;;;;;;4.46;100.00;97664.25;5075113;28;20211;-75
2023/03/17 05:22:40;;;;;;;6.70;5.07;;;;;;;4.43;100.00;97666.47;5074613;28;20226;-75
2023/03/17 05:25:06;;;;;;;7.93;5.03;;;;;;;4.37;100.00;97672.47;5076212;28;20208;-75
2023/03/17 05:27:33;;;;;;;7.27;5.07;;;;;;;4.35;100.00;97672.69;5075412;28;20212;-75
2023/03/17 05:29:59;;;;;;;7.67;5.47;;;;;;;4.30;100.00;97672.41;5075512;28;20311;-74
2023/03/17 05:32:26;;;;;;;7.20;5.10;;;;;;;4.27;100.00;97678.06;5058253;28;20329;-73
2023/03/17 05:34:52;;;;;;;5.90;5.00;;;;;;;4.22;100.00;97677.00;5074111;28;20205;-73
2023/03/17 05:37:18;;;;;;;7.73;5.10;;;;;;;4.13;100.00;97680.75;5073126;28;20205;-73
2023/03/17 05:39:45;;;;;;;7.93;5.13;;;;;;;4.10;100.00;97686.38;5073346;28;20656;-73
2023/03/17 05:42:11;;;;;;;6.43;5.13;;;;;;;4.05;100.00;97686.13;5072606;28;20539;-73
2023/03/17 05:44:38;;;;;;;7.87;5.50;;;;;;;4.05;100.00;97686.94;5072653;28;20362;-73
2023/03/17 05:47:04;;;;;;;7.47;5.90;;;;;;;4.03;100.00;97688.13;5073010;28;20208;-73
2023/03/17 05:49:31;;;;;;;6.90;5.20;;;;;;;4.12;100.00;97682.56;5073983;28;20205;-73
2023/03/17 05:51:57;;;;;;;6.37;5.63;;;;;;;4.13;100.00;97678.13;5074843;28;20230;-73
2023/03/17 05:54:24;;;;;;;11.20;5.90;;;;;;;4.19;100.00;97680.00;5074648;28;20257;-74
2023/03/17 05:56:51;;;;;;;10.43;5.53;;;;;;;4.23;100.00;97683.88;5075006;28;20303;-73
2023/03/17 05:59:17;;;;;;;7.87;5.93;;;;;;;4.31;100.00;97674.06;5075282;28;20207;-73
2023/03/17 06:01:44;;;;;;;6.33;5.43;;;;;;;4.42;100.00;97664.81;5074714;28;20540;-73
2023/03/17 06:04:11;;;;;;;8.07;5.40;;;;;;;4.40;100.00;97672.94;5075700;28;20204;-73
2023/03/17 06:06:37;;;;;;;8.07;5.47;;;;;;;4.46;100.00;97674.78;5074637;28;20204;-73
2023/03/17 06:09:04;;;;;;;6.60;5.73;;;;;;;4.54;100.00;97671.19;5074452;28;20219;-73
2023/03/17 06:11:31;;;;;;;8.93;5.53;;;;;;;4.59;100.00;97661.75;5074508;28;20260;-73
2023/03/17 06:13:57;;;;;;;10.03;5.80;;;;;;;4.66;100.00;97672.31;5073489;28;20243;-73
2023/03/17 06:16:23;;;;;;;7.23;5.50;;;;;;;4.76;100.00;97676.25;5073573;28;20652;-73
2023/03/17 06:18:50;;;;;;;6.73;5.80;;;;;;;4.86;100.00;97683.78;5074013;28;20279;-73
2023/03/17 06:21:16;;;;;;;9.23;6.00;;;;;;;4.94;100.00;97689.75;5074443;28;20200;-73
2023/03/17 06:23:43;;;;;;;9.40;5.93;;;;;;;4.94;100.00;97684.50;5074249;28;20224;-74
2023/03/17 06:26:09;;;;;;;9.90;5.57;;;;;;;4.97;99.90;97681.44;5074000;28;20258;-73
2023/03/17 06:28:36;;;;;;;7.30;5.57;;;;;;;5.02;99.40;97694.06;5073752;28;20213;-73
2023/03/17 06:31:02;;;;;;;6.50;5.77;;;;;;;5.06;99.84;97695.31;5073772;28;20250;-73
2023/03/17 06:33:28;;;;;;;8.70;5.80;;;;;;;5.03;98.47;97693.03;5073900;28;20224;-73
2023/03/17 06:35:57;;;;;;;10.03;5.80;;;;;;;4.99;99.48;97691.78;5073869;28;20219;-74
2023/03/17 06:38:23;;;;;;;8.80;6.20;;;;;;;5.07;99.19;97689.81;5073051;28;20292;-74
2023/03/17 06:40:50;;;;;;;8.20;5.97;;;;;;;5.11;99.43;97691.06;5072228;28;20566;-74
2023/03/17 06:43:18;;;;;;;7.67;5.87;;;;;;;5.15;96.86;97681.75;5071403;28;20707;-74
2023/03/17 06:45:45;;;;;;;9.73;6.40;;;;;;;5.19;97.88;97677.72;5071877;28;20291;-74
2023/03/17 06:48:12;;;;;;;10.13;6.63;;;;;;;5.29;96.88;97678.19;5071256;28;20204;-74
2023/03/17 06:50:38;;;;;;;9.53;6.57;;;;;;;5.27;98.34;97668.84;5071647;28;20668;-74
2023/03/17 06:53:06;;;;;;;9.93;6.03;;;;;;;5.37;97.42;97674.56;5072574;28;20269;-74
2023/03/17 06:55:32;;;;;;;8.90;6.10;;;;;;;5.50;98.09;97680.75;5071690;28;20214;-74
2023/03/17 06:57:59;;;;;;;8.23;6.60;;;;;;;5.61;94.40;97676.72;5073282;28;20274;-74
2023/03/17 07:00:26;;;;;;;8.43;5.70;;;;;;;5.76;92.94;97680.03;5073541;28;20254;-73
2023/03/17 07:02:52;;;;;;;9.13;5.80;;;;;;;5.81;92.56;97683.75;5072963;28;20224;-73
2023/03/17 07:05:19;;;;;;;9.17;5.83;;;;;;;5.93;91.75;97679.50;5073450;28;20208;-74
2023/03/17 07:07:45;;;;;;;7.67;5.90;;;;;;;6.06;92.39;97686.66;5073705;28;20227;-74
2023/03/17 07:10:14;;;;;;;6.97;5.37;;;;;;;6.16;90.33;97692.34;5073314;28;20617;-74
2023/03/17 07:12:41;;;;;;;8.10;5.50;;;;;;;6.21;89.48;97682.84;5072964;28;20302;-73
2023/03/17 07:15:09;;;;;;;9.93;5.83;;;;;;;6.37;88.18;97689.53;5073511;28;20232;-74
2023/03/17 07:17:35;;;;;;;9.10;5.70;;;;;;;6.50;87.09;97700.09;5072962;28;20212;-73
2023/03/17 07:20:02;;;;;;;7.40;5.93;;;;;;;6.62;86.96;97701.97;5073158;28;20216;-73
2023/03/17 07:22:28;;;;;;;7.13;5.47;;;;;;;6.61;86.01;97694.25;5073237;28;20221;-74
2023/03/17 07:24:54;;;;;;;7.93;5.57;;;;;;;6.70;84.85;97693.03;5073279;28;20204;-74
2023/03/17 07:27:23;;;;;;;8.43;5.60;;;;;;;6.94;82.91;97692.41;5073072;28;20208;-74
2023/03/17 07:29:49;;;;;;;9.50;5.63;;;;;;;6.86;82.84;97689.97;5073194;28;20291;-74
2023/03/17 07:32:15;;;;;;;7.53;5.57;;;;;;;6.82;81.76;97688.75;5073035;28;20307;-74
2023/03/17 07:34:42;;;;;;;8.63;5.50;;;;;;;6.87;81.73;97689.75;5072941;28;20213;-73
2023/03/17 07:37:09;;;;;;;9.50;5.07;;;;;;;6.92;81.99;97695.25;5073080;28;20295;-73
2023/03/17 07:39:35;;;;;;;8.90;5.60;;;;;;;7.04;82.60;97684.88;5072947;28;20244;-73
2023/03/17 07:42:02;;;;;;;10.33;5.00;;;;;;;7.14;79.17;97690.53;5072465;28;20223;-73
2023/03/17 07:44:30;;;;;;;7.03;4.47;;;;;;;7.21;80.16;97701.94;5072845;28;20573;-73
2023/03/17 07:46:56;;;;;;;7.90;5.10;;;;;;;7.20;79.39;97693.16;5072427;28;20221;-73
2023/03/17 07:49:22;;;;;;;6.87;4.80;;;;;;;7.24;78.97;97691.75;5072653;28;20210;-74
2023/03/17 07:51:49;;;;;;;7.77;4.63;;;;;;;7.27;78.81;97695.81;5072794;28;20238;-74
2023/03/17 07:54:15;;;;;;;8.37;4.67;;;;;;;7.38;75.72;97684.59;5072135;28;20668;-71
2023/03/17 07:56:42;;;;;;;7.07;4.73;;;;;;;7.38;78.44;97674.03;5072795;28;20212;-73
2023/03/17 07:59:09;;;;;;;7.60;4.37;;;;;;;7.41;76.93;97679.72;5072333;28;20204;-73
2023/03/17 08:01:36;;;;;;;8.57;4.47;;;;;;;7.44;77.28;97674.00;5073180;28;20196;-73
2023/03/17 08:04:04;;;;;;;7.93;4.60;;;;;;;7.44;77.44;97684.59;5072244;28;20212;-73
2023/03/17 08:06:31;;;;;;;7.87;4.20;;;;;;;7.48;77.36;97677.88;5072494;28;20308;-73
2023/03/17 08:08:57;;;;;;;6.77;4.43;;;;;;;7.61;75.41;97679.66;5072242;28;20638;-73
2023/03/17 08:11:24;;;;;;;6.60;4.50;;;;;;;7.70;74.30;97692.41;5072821;28;20224;-73
2023/03/17 08:13:50;;;;;;;6.10;4.20;;;;;;;7.81;74.57;97683.84;5073106;28;20238;-73
2023/03/17 08:16:17;;;;;;;7.93;4.53;;;;;;;7.88;75.17;97702.34;5072340;28;20220;-72
2023/03/17 08:18:43;;;;;;;5.87;4.40;;;;;;;8.25;73.33;97690.97;5072432;28;20232;-73
2023/03/17 08:21:10;;;;;;;7.33;4.83;;;;;;;8.41;71.66;97693.91;5072809;28;20291;-72
2023/03/17 08:23:36;;;;;;;6.03;4.43;;;;;;;8.38;72.27;97680.28;5072547;28;20638;-72
2023/03/17 08:26:04;;;;;;;6.83;4.33;;;;;;;8.40;72.55;97675.59;5072663;28;20289;-72
2023/03/17 08:28:31;;;;;;;5.93;4.00;;;;;;;8.48;71.28;97681.44;5072531;28;20219;-72
2023/03/17 08:31:12;;;;;;;7.07;4.67;;;;;;;8.68;72.58;97674.16;5072390;28;20319;-72
2023/03/17 08:33:40;;;;;;;6.80;4.30;;;;;;;8.65;71.45;97676.44;5072605;28;20224;-73
2023/03/17 08:36:09;;;;;;;8.27;4.20;;;;;;;8.80;72.12;97676.91;5072597;28;20209;-72
2023/03/17 08:38:37;;;;;;;10.80;4.60;;;;;;;8.67;72.03;97669.88;5072764;28;20208;-73
2023/03/17 08:41:06;;;;;;;8.50;4.73;;;;;;;8.61;71.62;97670.75;5072555;28;20211;-72
2023/03/17 08:43:34;;;;;;;8.37;4.40;;;;;;;8.93;70.42;97671.50;5072147;28;20228;-72
2023/03/17 08:46:05;;;;;;;8.87;4.67;;;;;;;9.17;67.92;97668.00;5072185;28;20212;-73
2023/03/17 08:48:33;;;;;;;6.57;4.30;;;;;;;9.21;70.15;97661.22;5072843;28;20189;-72
2023/03/17 08:50:59;;;;;;;8.87;5.07;;;;;;;9.12;70.17;97670.50;5072320;28;20235;-73
2023/03/17 08:53:26;;;;;;;9.17;4.53;;;;;;;9.19;67.61;97658.00;5072387;28;20224;-73
2023/03/17 08:55:55;;;;;;;7.90;4.87;;;;;;;9.31;68.38;97662.34;5072212;28;20663;-73
2023/03/17 08:58:21;;;;;;;8.60;4.80;;;;;;;9.45;66.58;97658.50;5072117;28;20209;-73
2023/03/17 09:00:48;;;;;;;7.03;4.67;;;;;;;9.62;64.62;97662.22;5072414;28;20201;-73
2023/03/17 09:03:15;;;;;;;7.37;4.57;;;;;;;9.64;66.63;97660.13;5072291;28;20252;-72
2023/03/17 09:05:42;;;;;;;6.60;4.60;;;;;;;9.86;65.87;97660.50;5072519;28;20232;-73
2023/03/17 09:08:10;;;;;;;7.00;4.03;;;;;;;10.08;62.32;97658.97;5071997;28;20287;-73
2023/03/17 09:10:36;;;;;;;9.00;4.63;;;;;;;10.42;63.20;97658.31;5072147;28;20225;-73
2023/03/17 09:13:03;;;;;;;6.93;4.70;;;;;;;10.51;63.90;97652.41;5071695;28;20692;-72
2023/03/17 09:15:33;;;;;;;7.07;3.90;;;;;;;10.76;62.33;97647.72;5072288;28;20215;-74
2023/03/17 09:18:00;;;;;;;5.07;4.00;;;;;;;11.18;61.80;97646.56;5072241;28;20333;-74
2023/03/17 09:20:27;;;;;;;6.87;4.53;;;;;;;11.07;61.22;97645.78;5074946;28;20200;-74
2023/03/17 09:22:53;;;;;;;5.80;3.97;;;;;;;10.99;60.84;97652.25;5075403;28;20229;-74
2023/03/17 09:25:20;;;;;;;4.60;3.90;;;;;;;11.10;60.26;97643.47;5075929;28;20208;-74
2023/03/17 09:27:46;;;;;;;7.93;4.40;;;;;;;11.34;59.88;97644.28;5075446;28;20209;-74
2023/03/17 09:30:13;;;;;;;7.80;4.20;;;;;;;11.16;60.49;97644.41;5075225;28;20240;-74
2023/03/17 09:32:41;;;;;;;6.30;4.30;;;;;;;11.26;60.76;97642.75;5074981;28;20232;-73
2023/03/17 09:35:08;;;;;;;7.47;3.47;;;;;;;11.52;60.68;97652.09;5074755;28;20288;-73
2023/03/17 09:37:35;;;;;;;7.57;3.93;;;;;;;11.46;61.31;97650.38;5074852;28;20245;-73
2023/03/17 09:40:02;;;;;;;4.13;3.50;;;;;;;11.64;58.94;97650.25;5075098;28;20235;-73
2023/03/17 09:42:59;;;;;;;6.00;4.07;;;;;;;11.98;56.33;97647.47;5074568;28;20221;-74
2023/03/17 09:45:35;;;;;;;7.67;3.37;;;;;;;12.50;56.03;97651.66;5074718;28;20196;-73
2023/03/17 09:48:22;;;;;;;5.87;3.50;;;;;;;12.63;54.34;97647.84;5073935;28;20205;-74
2023/03/17 09:50:54;;;;;;;4.60;2.93;;;;;;;12.51;53.97;97645.25;5063811;28;20239;-74
2023/03/17 09:53:25;;;;;;;6.83;3.20;;;;;;;12.66;54.48;97653.50;5075055;28;20224;-74
2023/03/17 09:55:57;;;;;;;6.93;3.67;;;;;;;12.93;53.13;97651.81;5074924;28;20639;-74
2023/03/17 09:58:30;;;;;;;5.47;3.47;;;;;;;12.91;52.53;97650.44;5073321;28;20192;-74
2023/03/17 10:00:57;;;;;;;4.97;3.47;;;;;;;13.04;51.66;97645.63;5074972;28;20185;-73
2023/03/17 10:03:25;;;;;;;5.77;3.50;;;;;;;13.04;53.00;97650.16;5074635;28;20246;-74
2023/03/17 10:05:51;;;;;;;8.67;3.33;;;;;;;13.30;50.57;97638.78;5073326;28;20215;-74
2023/03/17 10:08:21;;;;;;;3.23;2.87;;;;;;;13.12;51.44;97641.75;5075058;28;20204;-74
2023/03/17 10:11:13;;;;;;;5.27;3.40;;;;;;;13.21;52.14;97646.41;5074808;28;20278;-73
2023/03/17 10:13:45;;;;;;;7.07;3.47;;;;;;;13.19;51.09;97645.03;5074674;28;20228;-73
2023/03/17 10:16:14;;;;;;;8.13;3.30;;;;;;;13.29;50.10;97637.19;5074665;28;20546;-73
2023/03/17 10:18:49;;;;;;;3.87;3.07;;;;;;;13.48;50.44;97636.63;5074624;28;20266;-74
2023/03/17 10:21:23;;;;;;;5.77;3.03;;;;;;;13.35;51.79;97628.19;5075062;28;20650;-73
2023/03/17 10:23:50;;;;;;;5.10;3.40;;;;;;;13.64;50.00;97622.44;5074595;28;20231;-73
2023/03/17 10:26:40;;;;;;;6.13;3.67;;;;;;;13.45;51.19;97618.47;5074360;28;20204;-73
2023/03/17 10:29:21;;;;;;;7.97;3.17;;;;;;;13.36;51.91;97609.25;5074328;28;20261;-73
2023/03/17 10:31:47;;;;;;;4.83;3.17;;;;;;;13.45;50.21;97620.31;5072963;28;20213;-74
2023/03/17 10:34:32;;;;;;;3.53;2.50;;;;;;;13.37;49.87;97610.88;5074222;28;20234;-73
2023/03/17 10:37:25;;;;;;;4.73;2.73;;;;;;;13.54;50.64;97613.47;5073997;28;20212;-73
2023/03/17 10:39:55;;;;;;;7.13;2.73;;;;;;;13.94;49.50;97606.78;5074167;28;20192;-74
2023/03/17 10:42:29;;;;;;;4.17;2.80;;;;;;;14.12;47.20;97610.94;5073709;28;20228;-74
2023/03/17 10:44:57;;;;;;;6.73;3.13;;;;;;;14.69;46.85;97612.03;5074148;28;20254;-74
2023/03/17 10:47:30;;;;;;;6.60;2.80;;;;;;;15.15;45.31;97585.34;5074224;28;20234;-73
2023/03/17 10:49:59;;;;;;;7.33;3.10;;;;;;;15.23;43.71;97597.44;5074012;28;20246;-73
2023/03/17 10:52:29;;;;;;;6.60;3.20;;;;;;;15.47;45.10;97598.69;5073302;28;20308;-73
2023/03/17 10:55:01;;;;;;;4.50;2.57;;;;;;;15.03;46.91;97602.66;5073674;28;20209;-73
2023/03/17 10:57:30;;;;;;;5.67;2.77;;;;;;;15.05;44.90;97601.34;5073248;28;20275;-73
2023/03/17 10:59:59;;;;;;;5.60;2.40;;;;;;;15.22;45.28;97596.63;5073728;28;20578;-73
2023/03/17 11:02:30;;;;;;;2.63;2.00;;;;;;;15.64;42.39;97591.22;5073656;28;20225;-74
2023/03/17 11:05:04;;;;;;;3.20;2.40;;;;;;;15.54;43.66;97597.38;5073713;28;20189;-74
2023/03/17 11:07:39;;;;;;;3.30;2.20;;;;;;;15.52;43.23;97585.31;5073624;28;20189;-73
2023/03/17 11:10:27;;;;;;;3.23;2.50;;;;;;;15.33;43.91;97579.53;5073848;28;20185;-73
2023/03/17 11:13:01;;;;;;;4.93;2.03;;;;;;;15.55;45.44;97580.22;5073648;28;20228;-73
2023/03/17 11:15:40;;;;;;;2.93;2.20;;;;;;;15.87;41.81;97580.09;5073054;28;20200;-73
2023/03/17 11:18:24;;;;;;;3.40;1.93;;;;;;;15.68;41.05;97576.25;5072982;28;20580;-74
2023/03/17 11:21:05;;;;;;;2.70;2.00;;;;;;;15.84;42.41;97567.19;5055873;28;20200;-75
2023/03/17 11:23:45;;;;;;;5.80;2.30;;;;;;;15.89;41.61;97562.66;5073176;28;20228;-74
2023/03/17 11:26:33;;;;;;;4.37;2.30;;;;;;;15.98;42.21;97561.09;5071612;28;20192;-75
2023/03/17 11:29:18;;;;;;;3.67;1.97;;;;;;;16.05;41.58;97552.78;5073189;28;20265;-75
2023/03/17 11:31:47;;;;;;;2.83;2.27;;;;;;;16.39;41.35;97551.19;5070954;28;20208;-74
2023/03/17 11:34:21;;;;;;;3.57;2.23;;;;;;;16.43;42.63;97555.00;5072552;28;20201;-75
2023/03/17 11:37:10;;;;;;;2.73;2.00;;;;;;;16.24;41.90;97549.31;5073435;28;20208;-74
2023/03/17 11:40:00;;;;;;;4.70;2.40;;;;;;;16.54;41.49;97543.19;5073219;28;20199;-75
2023/03/17 11:42:44;;;;;;;2.97;2.00;;;;;;;16.63;40.47;97538.88;5072178;28;20558;-75
2023/03/17 11:45:23;;;;;;;2.87;1.90;;;;;;;16.50;42.32;97536.72;5073121;28;20189;-74